Main page
METAR-TAF:

METAR-TAF

Airports :

Ghedi Air Base

Brescia Ghedi, Italy

latitude: 45-25N, longitude: 010-17E, elevation: 102 m

Current weather observation

The report was made 1 hour and 18 minutes ago, at 10:55 UTC
Wind 6 kt from the West
Temperature 26°C
Humidity 58%
Pressure 1010 hPa
Visibility 10 km or more
Few clouds at a height of 3000 ft

METAR: LIPL 221055Z 27006KT 9999 FEW030 26/17 Q1010 RMK SCT VIS MIN 9999 WIND THR31 26005KT WIND THR13 26005KT BLU

Time: 14:13 (12:13 UTC)

Forecast

The report was made 1 hour and 13 minutes ago, at 11:00 UTC
Forecast valid from 22 at 12 UTC to 22 at 21 UTC
Wind 5 kt from the West
Visibility 10 km or more
Few clouds at a height of 4000 ft
Probability 40% :
Temporary
from 22 at 15 UTC to 22 at 20 UTC
Few clouds at a height of 2000 ft, Cumulonimbus.
Scattered clouds at a height of 3000 ft
thunderstorm, rain

TAF: LIPL 221100Z 2212/2221 26005KT 9999 FEW040 PROB40 TEMPO 2215/2220 TSRA FEW020CB SCT030

Weather observations and forecasts of more than 4000 airports (METAR and TAF reports).

The available stations are represented by yellow and red dots on the map.

Hover mouse over dot to see the name of the station.

Then click to see weather observations and forecasts.

To change the map : click on the green buttons with a black cross to zoom in, on the green button with a dash to zoom out, or on the green arrows for adjacent maps.


METAR-TAF: